sensor_id;sensor_type;location;lat;lon;timestamp;pressure;altitude;pressure_sealevel;temperature;humidity
35226;BME280;21813;49.686;21.766;2023-03-20T00:00:33;98407.47;;;5.26;77.34
35226;BME280;21813;49.686;21.766;2023-03-20T00:03:17;98398.22;;;5.22;76.65
35226;BME280;21813;49.686;21.766;2023-03-20T00:05:43;98407.47;;;5.26;76.13
35226;BME280;21813;49.686;21.766;2023-03-20T00:08:09;98395.63;;;5.22;76.17
35226;BME280;21813;49.686;21.766;2023-03-20T00:10:41;98399.13;;;5.21;77.02
35226;BME280;21813;49.686;21.766;2023-03-20T00:13:10;98410.47;;;5.18;77.53
35226;BME280;21813;49.686;21.766;2023-03-20T00:15:41;98402.97;;;5.14;77.80
35226;BME280;21813;49.686;21.766;2023-03-20T00:18:19;98405.66;;;5.12;77.61
35226;BME280;21813;49.686;21.766;2023-03-20T00:20:48;98401.50;;;5.10;78.19
35226;BME280;21813;49.686;21.766;2023-03-20T00:23:17;98400.66;;;5.09;77.84
35226;BME280;21813;49.686;21.766;2023-03-20T00:25:44;98387.28;;;5.03;78.65
35226;BME280;21813;49.686;21.766;2023-03-20T00:28:41;98397.63;;;5.03;78.10
35226;BME280;21813;49.686;21.766;2023-03-20T00:31:26;98395.03;;;5.03;77.70
35226;BME280;21813;49.686;21.766;2023-03-20T00:33:54;98388.38;;;4.99;78.06
35226;BME280;21813;49.686;21.766;2023-03-20T00:36:27;98387.53;;;4.98;78.15
35226;BME280;21813;49.686;21.766;2023-03-20T00:38:53;98393.69;;;4.96;78.11
35226;BME280;21813;49.686;21.766;2023-03-20T00:41:25;98388.72;;;4.93;78.26
35226;BME280;21813;49.686;21.766;2023-03-20T00:43:59;98391.38;;;4.91;78.61
35226;BME280;21813;49.686;21.766;2023-03-20T00:46:26;98385.38;;;4.90;78.37
35226;BME280;21813;49.686;21.766;2023-03-20T00:48:53;98378.72;;;4.86;78.05
35226;BME280;21813;49.686;21.766;2023-03-20T00:51:20;98380.41;;;4.87;77.75
35226;BME280;21813;49.686;21.766;2023-03-20T00:53:45;98378.56;;;4.89;77.92
35226;BME280;21813;49.686;21.766;2023-03-20T00:56:31;98378.56;;;4.89;78.07
35226;BME280;21813;49.686;21.766;2023-03-20T00:58:58;98384.56;;;4.90;77.77
35226;BME280;21813;49.686;21.766;2023-03-20T01:01:25;98387.97;;;4.90;77.95
35226;BME280;21813;49.686;21.766;2023-03-20T01:03:51;98386.22;;;4.91;78.19
35226;BME280;21813;49.686;21.766;2023-03-20T01:06:18;98380.41;;;4.87;79.20
35226;BME280;21813;49.686;21.766;2023-03-20T01:08:43;98382.13;;;4.87;79.36
35226;BME280;21813;49.686;21.766;2023-03-20T01:11:12;98380.41;;;4.87;79.28
35226;BME280;21813;49.686;21.766;2023-03-20T01:13:38;98370.31;;;4.83;79.40
35226;BME280;21813;49.686;21.766;2023-03-20T01:16:19;98373.66;;;4.85;78.96
35226;BME280;21813;49.686;21.766;2023-03-20T01:18:46;98377.25;;;4.82;79.59
35226;BME280;21813;49.686;21.766;2023-03-20T01:21:12;98384.25;;;4.80;79.29
35226;BME280;21813;49.686;21.766;2023-03-20T01:23:38;98388.47;;;4.81;79.47
35226;BME280;21813;49.686;21.766;2023-03-20T01:26:19;98395.38;;;4.81;79.95
35226;BME280;21813;49.686;21.766;2023-03-20T01:28:46;98388.72;;;4.77;80.60
35226;BME280;21813;49.686;21.766;2023-03-20T01:31:15;98396.59;;;4.75;81.62
35226;BME280;21813;49.686;21.766;2023-03-20T01:33:41;98391.50;;;4.74;81.51
35226;BME280;21813;49.686;21.766;2023-03-20T01:36:12;98390.84;;;4.70;81.96
35226;BME280;21813;49.686;21.766;2023-03-20T01:38:39;98397.94;;;4.67;82.48
35226;BME280;21813;49.686;21.766;2023-03-20T01:41:13;98405.75;;;4.65;82.58
35226;BME280;21813;49.686;21.766;2023-03-20T01:43:41;98404.09;;;4.64;82.94
35226;BME280;21813;49.686;21.766;2023-03-20T01:46:15;98388.19;;;4.56;82.74
35226;BME280;21813;49.686;21.766;2023-03-20T01:51:19;98399.44;;;4.55;83.68
35226;BME280;21813;49.686;21.766;2023-03-20T01:53:50;98390.38;;;4.48;83.57
35226;BME280;21813;49.686;21.766;2023-03-20T01:56:19;98391.34;;;4.45;83.75
35226;BME280;21813;49.686;21.766;2023-03-20T01:58:48;98391.59;;;4.41;83.44
35226;BME280;21813;49.686;21.766;2023-03-20T02:01:17;98387.22;;;4.43;83.64
35226;BME280;21813;49.686;21.766;2023-03-20T02:03:47;98394.84;;;4.44;84.78
35226;BME280;21813;49.686;21.766;2023-03-20T02:06:15;98398.25;;;4.45;84.40
35226;BME280;21813;49.686;21.766;2023-03-20T02:08:44;98397.53;;;4.43;84.21
35226;BME280;21813;49.686;21.766;2023-03-20T02:11:12;98388.13;;;4.42;84.10
35226;BME280;21813;49.686;21.766;2023-03-20T02:13:38;98407.03;;;4.42;84.25
35226;BME280;21813;49.686;21.766;2023-03-20T02:16:16;98400.25;;;4.40;84.81
35226;BME280;21813;49.686;21.766;2023-03-20T02:18:46;98397.78;;;4.38;85.19
35226;BME280;21813;49.686;21.766;2023-03-20T02:32:20;98396.69;;;4.27;84.46
35226;BME280;21813;49.686;21.766;2023-03-20T02:40:16;98382.19;;;4.09;84.54
35226;BME280;21813;49.686;21.766;2023-03-20T02:47:58;98379.78;;;4.06;84.26
35226;BME280;21813;49.686;21.766;2023-03-20T02:50:32;98377.81;;;4.11;84.06
35226;BME280;21813;49.686;21.766;2023-03-20T02:53:12;98378.63;;;4.11;83.98
35226;BME280;21813;49.686;21.766;2023-03-20T02:58:21;98375.97;;;4.13;83.80
35226;BME280;21813;49.686;21.766;2023-03-20T03:01:02;98374.88;;;4.17;83.97
35226;BME280;21813;49.686;21.766;2023-03-20T03:03:59;98368.16;;;4.14;83.58
35226;BME280;21813;49.686;21.766;2023-03-20T03:06:30;98372.16;;;4.20;84.30
35226;BME280;21813;49.686;21.766;2023-03-20T03:09:02;98379.13;;;4.18;84.96
35226;BME280;21813;49.686;21.766;2023-03-20T03:11:31;98368.97;;;4.15;85.02
35226;BME280;21813;49.686;21.766;2023-03-20T03:14:01;98362.16;;;4.14;85.39
35226;BME280;21813;49.686;21.766;2023-03-20T03:16:32;98374.88;;;4.17;85.67
35226;BME280;21813;49.686;21.766;2023-03-20T03:19:06;98369.88;;;4.14;85.44
35226;BME280;21813;49.686;21.766;2023-03-20T03:21:35;98373.31;;;4.14;85.36
35226;BME280;21813;49.686;21.766;2023-03-20T03:24:03;98364.16;;;4.09;85.84
35226;BME280;21813;49.686;21.766;2023-03-20T03:26:38;98374.28;;;4.12;86.42
35226;BME280;21813;49.686;21.766;2023-03-20T03:29:13;98363.06;;;4.13;86.62
35226;BME280;21813;49.686;21.766;2023-03-20T03:31:42;98364.97;;;4.09;87.45
35226;BME280;21813;49.686;21.766;2023-03-20T03:34:13;98376.97;;;4.10;87.49
35226;BME280;21813;49.686;21.766;2023-03-20T03:44:36;98371.88;;;4.09;88.70
35226;BME280;21813;49.686;21.766;2023-03-20T03:47:09;98370.38;;;4.05;90.09
35226;BME280;21813;49.686;21.766;2023-03-20T03:49:42;98373.13;;;4.02;89.78
35226;BME280;21813;49.686;21.766;2023-03-20T03:52:15;98369.63;;;4.03;89.60
35226;BME280;21813;49.686;21.766;2023-03-20T03:55:04;98374.78;;;4.03;89.71
35226;BME280;21813;49.686;21.766;2023-03-20T03:57:48;98368.28;;;3.95;89.49
35226;BME280;21813;49.686;21.766;2023-03-20T04:00:21;98359.66;;;3.96;90.50
35226;BME280;21813;49.686;21.766;2023-03-20T04:02:50;98362.31;;;3.95;89.94
35226;BME280;21813;49.686;21.766;2023-03-20T04:05:18;98370.28;;;3.90;90.43
35226;BME280;21813;49.686;21.766;2023-03-20T04:07:46;98366.97;;;3.88;90.17
35226;BME280;21813;49.686;21.766;2023-03-20T04:10:14;98365.38;;;3.86;90.70
35226;BME280;21813;49.686;21.766;2023-03-20T04:12:42;98373.78;;;3.89;90.45
35226;BME280;21813;49.686;21.766;2023-03-20T04:15:10;98368.63;;;3.89;89.90
35226;BME280;21813;49.686;21.766;2023-03-20T04:17:35;98365.44;;;3.84;90.07
35226;BME280;21813;49.686;21.766;2023-03-20T04:20:03;98368.13;;;3.83;90.13
35226;BME280;21813;49.686;21.766;2023-03-20T04:22:29;98362.03;;;3.84;89.90
35226;BME280;21813;49.686;21.766;2023-03-20T04:24:56;98369.63;;;3.87;89.81
35226;BME280;21813;49.686;21.766;2023-03-20T04:27:22;98378.94;;;3.89;89.31
35226;BME280;21813;49.686;21.766;2023-03-20T04:29:49;98369.69;;;3.85;89.38
35226;BME280;21813;49.686;21.766;2023-03-20T04:32:15;98376.44;;;3.88;88.58
35226;BME280;21813;49.686;21.766;2023-03-20T04:34:41;98374.84;;;3.85;89.15
35226;BME280;21813;49.686;21.766;2023-03-20T04:37:07;98376.75;;;3.82;88.92
35226;BME280;21813;49.686;21.766;2023-03-20T04:39:34;98365.09;;;3.75;89.19
35226;BME280;21813;49.686;21.766;2023-03-20T04:42:04;98377.75;;;3.79;88.58
35226;BME280;21813;49.686;21.766;2023-03-20T04:44:31;98377.25;;;3.73;89.15
35226;BME280;21813;49.686;21.766;2023-03-20T04:46:57;98378.81;;;3.75;88.73
35226;BME280;21813;49.686;21.766;2023-03-20T04:49:26;98373.75;;;3.74;89.11
35226;BME280;21813;49.686;21.766;2023-03-20T04:51:52;98370.19;;;3.76;88.87
35226;BME280;21813;49.686;21.766;2023-03-20T04:54:18;98374.50;;;3.76;88.82
35226;BME280;21813;49.686;21.766;2023-03-20T04:56:44;98382.91;;;3.79;88.87
35226;BME280;21813;49.686;21.766;2023-03-20T04:59:10;98389.59;;;3.83;88.82
35226;BME280;21813;49.686;21.766;2023-03-20T05:01:36;98389.47;;;3.85;88.29
35226;BME280;21813;49.686;21.766;2023-03-20T05:04:03;98391.09;;;3.87;88.41
35226;BME280;21813;49.686;21.766;2023-03-20T05:06:30;98397.06;;;3.88;88.69
35226;BME280;21813;49.686;21.766;2023-03-20T05:09:00;98402.00;;;3.92;89.05
35226;BME280;21813;49.686;21.766;2023-03-20T05:11:26;98407.03;;;3.94;88.91
35226;BME280;21813;49.686;21.766;2023-03-20T05:13:53;98403.50;;;3.96;89.48
35226;BME280;21813;49.686;21.766;2023-03-20T05:16:19;98403.50;;;3.96;89.98
35226;BME280;21813;49.686;21.766;2023-03-20T05:18:47;98396.66;;;3.95;89.74
35226;BME280;21813;49.686;21.766;2023-03-20T05:21:13;98403.38;;;3.98;89.57
35226;BME280;21813;49.686;21.766;2023-03-20T05:23:40;98401.75;;;3.97;89.35
35226;BME280;21813;49.686;21.766;2023-03-20T05:26:06;98407.56;;;4.00;89.06
35226;BME280;21813;49.686;21.766;2023-03-20T05:28:32;98402.41;;;4.00;88.80
35226;BME280;21813;49.686;21.766;2023-03-20T05:30:57;98413.22;;;4.07;88.25
35226;BME280;21813;49.686;21.766;2023-03-20T05:33:23;98400.31;;;4.07;88.32
35226;BME280;21813;49.686;21.766;2023-03-20T05:35:49;98412.06;;;4.13;88.13
35226;BME280;21813;49.686;21.766;2023-03-20T05:38:16;98408.56;;;4.14;87.90
35226;BME280;21813;49.686;21.766;2023-03-20T05:40:41;98412.59;;;4.19;87.30
35226;BME280;21813;49.686;21.766;2023-03-20T05:43:07;98406.41;;;4.22;86.33
35226;BME280;21813;49.686;21.766;2023-03-20T05:45:33;98409.59;;;4.27;86.32
35226;BME280;21813;49.686;21.766;2023-03-20T05:47:59;98412.94;;;4.29;87.12
35226;BME280;21813;49.686;21.766;2023-03-20T05:50:25;98396.53;;;4.30;86.58
35226;BME280;21813;49.686;21.766;2023-03-20T05:52:52;98404.84;;;4.35;86.50
35226;BME280;21813;49.686;21.766;2023-03-20T05:55:17;98407.03;;;4.42;87.26
35226;BME280;21813;49.686;21.766;2023-03-20T05:57:44;98410.06;;;4.49;87.13
35226;BME280;21813;49.686;21.766;2023-03-20T06:00:10;98406.25;;;4.56;87.11
35226;BME280;21813;49.686;21.766;2023-03-20T06:02:36;98401.50;;;4.64;86.56
35226;BME280;21813;49.686;21.766;2023-03-20T06:05:03;98403.38;;;4.76;86.29
35226;BME280;21813;49.686;21.766;2023-03-20T06:07:29;98404.53;;;4.86;85.62
35226;BME280;21813;49.686;21.766;2023-03-20T06:09:55;98401.38;;;4.97;85.16
35226;BME280;21813;49.686;21.766;2023-03-20T06:12:22;98396.31;;;5.10;84.26
35226;BME280;21813;49.686;21.766;2023-03-20T06:14:47;98392.38;;;5.18;83.31
35226;BME280;21813;49.686;21.766;2023-03-20T06:17:15;98395.00;;;5.32;82.56
35226;BME280;21813;49.686;21.766;2023-03-20T06:19:40;98393.63;;;5.41;81.26
35226;BME280;21813;49.686;21.766;2023-03-20T06:22:06;98396.34;;;5.54;80.48
35226;BME280;21813;49.686;21.766;2023-03-20T06:24:32;98400.59;;;5.69;80.38
35226;BME280;21813;49.686;21.766;2023-03-20T06:27:00;98388.50;;;5.84;79.36
35226;BME280;21813;49.686;21.766;2023-03-20T06:29:26;98401.72;;;6.07;77.74
35226;BME280;21813;49.686;21.766;2023-03-20T06:31:54;98405.78;;;6.26;76.64
35226;BME280;21813;49.686;21.766;2023-03-20T06:34:34;98406.56;;;6.54;76.46
35226;BME280;21813;49.686;21.766;2023-03-20T06:37:01;98409.44;;;6.77;75.12
35226;BME280;21813;49.686;21.766;2023-03-20T06:39:27;98400.69;;;6.92;73.39
35226;BME280;21813;49.686;21.766;2023-03-20T06:41:54;98409.13;;;7.08;73.99
35226;BME280;21813;49.686;21.766;2023-03-20T06:44:20;98392.66;;;7.22;72.36
35226;BME280;21813;49.686;21.766;2023-03-20T06:46:46;98393.84;;;7.30;71.74
35226;BME280;21813;49.686;21.766;2023-03-20T06:49:12;98393.25;;;7.39;71.89
35226;BME280;21813;49.686;21.766;2023-03-20T06:51:38;98398.75;;;7.47;71.48
35226;BME280;21813;49.686;21.766;2023-03-20T06:54:04;98400.41;;;7.48;70.62
35226;BME280;21813;49.686;21.766;2023-03-20T06:56:30;98395.94;;;7.50;71.31
35226;BME280;21813;49.686;21.766;2023-03-20T06:58:56;98403.09;;;7.60;70.20
35226;BME280;21813;49.686;21.766;2023-03-20T07:01:25;98398.03;;;7.71;69.70
35226;BME280;21813;49.686;21.766;2023-03-20T07:03:51;98396.25;;;7.84;69.21
35226;BME280;21813;49.686;21.766;2023-03-20T07:06:18;98402.25;;;7.97;69.30
35226;BME280;21813;49.686;21.766;2023-03-20T07:08:44;98398.09;;;8.07;69.00
35226;BME280;21813;49.686;21.766;2023-03-20T07:11:13;98408.47;;;8.20;69.45
35226;BME280;21813;49.686;21.766;2023-03-20T07:13:39;98409.28;;;8.33;68.30
35226;BME280;21813;49.686;21.766;2023-03-20T07:16:07;98405.34;;;8.40;66.89
35226;BME280;21813;49.686;21.766;2023-03-20T07:18:33;98402.19;;;8.48;66.83
35226;BME280;21813;49.686;21.766;2023-03-20T07:21:04;98394.91;;;8.53;66.70
35226;BME280;21813;49.686;21.766;2023-03-20T07:23:31;98403.59;;;8.64;66.19
35226;BME280;21813;49.686;21.766;2023-03-20T07:26:09;98404.25;;;8.79;66.79
35226;BME280;21813;49.686;21.766;2023-03-20T07:28:34;98407.84;;;8.89;65.56
35226;BME280;21813;49.686;21.766;2023-03-20T07:31:02;98396.69;;;9.00;65.57
35226;BME280;21813;49.686;21.766;2023-03-20T07:33:28;98409.88;;;9.20;65.72
35226;BME280;21813;49.686;21.766;2023-03-20T07:36:10;98387.59;;;9.40;64.20
35226;BME280;21813;49.686;21.766;2023-03-20T07:38:35;98406.47;;;9.66;63.21
35226;BME280;21813;49.686;21.766;2023-03-20T07:41:11;98403.88;;;9.77;62.80
35226;BME280;21813;49.686;21.766;2023-03-20T07:43:37;98397.59;;;9.91;62.62
35226;BME280;21813;49.686;21.766;2023-03-20T07:46:05;98402.72;;;10.03;61.85
35226;BME280;21813;49.686;21.766;2023-03-20T07:48:39;98417.41;;;10.15;61.39
35226;BME280;21813;49.686;21.766;2023-03-20T07:51:06;98414.56;;;10.30;61.25
35226;BME280;21813;49.686;21.766;2023-03-20T07:53:32;98408.41;;;10.42;60.91
35226;BME280;21813;49.686;21.766;2023-03-20T07:55:58;98413.56;;;10.64;60.13
35226;BME280;21813;49.686;21.766;2023-03-20T07:58:30;98412.44;;;10.89;57.39
35226;BME280;21813;49.686;21.766;2023-03-20T08:00:59;98408.63;;;11.25;54.98
35226;BME280;21813;49.686;21.766;2023-03-20T08:03:27;98413.03;;;11.66;53.42
35226;BME280;21813;49.686;21.766;2023-03-20T08:05:54;98416.13;;;11.91;52.68
35226;BME280;21813;49.686;21.766;2023-03-20T08:08:20;98416.50;;;12.17;52.81
35226;BME280;21813;49.686;21.766;2023-03-20T08:10:47;98415.31;;;12.31;50.45
35226;BME280;21813;49.686;21.766;2023-03-20T08:13:21;98419.75;;;12.40;50.07
35226;BME280;21813;49.686;21.766;2023-03-20T08:16:17;98410.69;;;12.44;48.73
35226;BME280;21813;49.686;21.766;2023-03-20T08:19:29;98396.97;;;12.52;48.72
35226;BME280;21813;49.686;21.766;2023-03-20T08:22:53;98409.69;;;12.75;48.12
35226;BME280;21813;49.686;21.766;2023-03-20T08:25:51;98417.41;;;12.96;48.02
35226;BME280;21813;49.686;21.766;2023-03-20T08:28:56;98418.78;;;13.10;48.08
35226;BME280;21813;49.686;21.766;2023-03-20T08:31:29;98411.69;;;13.12;47.00
35226;BME280;21813;49.686;21.766;2023-03-20T08:34:12;98408.31;;;13.10;47.97
35226;BME280;21813;49.686;21.766;2023-03-20T08:36:38;98417.59;;;13.14;48.07
35226;BME280;21813;49.686;21.766;2023-03-20T08:39:06;98403.81;;;13.12;47.63
35226;BME280;21813;49.686;21.766;2023-03-20T08:41:33;98412.75;;;13.19;48.49
35226;BME280;21813;49.686;21.766;2023-03-20T08:44:09;98417.59;;;13.23;48.05
35226;BME280;21813;49.686;21.766;2023-03-20T08:46:34;98413.88;;;13.26;47.59
35226;BME280;21813;49.686;21.766;2023-03-20T08:49:02;98418.13;;;13.37;47.39
35226;BME280;21813;49.686;21.766;2023-03-20T08:51:29;98399.69;;;13.38;47.47
35226;BME280;21813;49.686;21.766;2023-03-20T08:54:00;98401.22;;;13.41;46.95
35226;BME280;21813;49.686;21.766;2023-03-20T08:56:26;98404.63;;;13.51;46.90
35226;BME280;21813;49.686;21.766;2023-03-20T08:58:52;98402.28;;;13.57;46.60
35226;BME280;21813;49.686;21.766;2023-03-20T09:01:20;98402.56;;;13.64;46.47
35226;BME280;21813;49.686;21.766;2023-03-20T09:03:46;98401.97;;;13.70;46.36
35226;BME280;21813;49.686;21.766;2023-03-20T09:09:15;98397.50;;;13.90;46.29
35226;BME280;21813;49.686;21.766;2023-03-20T09:11:59;98395.28;;;13.95;45.69
35226;BME280;21813;49.686;21.766;2023-03-20T09:14:26;98386.47;;;13.96;46.14
35226;BME280;21813;49.686;21.766;2023-03-20T09:16:52;98397.63;;;13.98;45.18
35226;BME280;21813;49.686;21.766;2023-03-20T09:19:19;98395.28;;;13.95;45.15
35226;BME280;21813;49.686;21.766;2023-03-20T09:21:48;98390.63;;;13.89;44.66
35226;BME280;21813;49.686;21.766;2023-03-20T09:24:22;98395.97;;;13.97;45.78
35226;BME280;21813;49.686;21.766;2023-03-20T09:26:48;98392.38;;;13.98;45.10
35226;BME280;21813;49.686;21.766;2023-03-20T09:29:16;98381.22;;;13.96;43.59
35226;BME280;21813;49.686;21.766;2023-03-20T09:31:41;98388.09;;;13.97;45.64
35226;BME280;21813;49.686;21.766;2023-03-20T09:34:08;98390.84;;;14.05;45.99
35226;BME280;21813;49.686;21.766;2023-03-20T09:36:34;98391.91;;;14.12;45.71
35226;BME280;21813;49.686;21.766;2023-03-20T09:39:00;98394.06;;;14.26;45.79
35226;BME280;21813;49.686;21.766;2023-03-20T09:41:27;98389.09;;;14.33;45.03
35226;BME280;21813;49.686;21.766;2023-03-20T09:44:08;98382.03;;;14.33;43.43
35226;BME280;21813;49.686;21.766;2023-03-20T09:54:53;98378.59;;;14.33;45.27
35226;BME280;21813;49.686;21.766;2023-03-20T09:57:31;98386.59;;;14.41;45.51
35226;BME280;21813;49.686;21.766;2023-03-20T10:00:05;98379.63;;;14.49;44.84
35226;BME280;21813;49.686;21.766;2023-03-20T10:03:00;98374.84;;;14.63;45.18
35226;BME280;21813;49.686;21.766;2023-03-20T10:05:33;98370.38;;;14.73;44.89
35226;BME280;21813;49.686;21.766;2023-03-20T10:08:01;98360.91;;;14.80;44.90
35226;BME280;21813;49.686;21.766;2023-03-20T10:10:37;98365.13;;;14.90;44.47
35226;BME280;21813;49.686;21.766;2023-03-20T10:13:19;98367.03;;;14.98;44.24
35226;BME280;21813;49.686;21.766;2023-03-20T10:16:02;98357.44;;;15.07;44.38
35226;BME280;21813;49.686;21.766;2023-03-20T10:18:33;98362.59;;;15.16;44.04
35226;BME280;21813;49.686;21.766;2023-03-20T10:21:13;98345.69;;;15.19;43.26
35226;BME280;21813;49.686;21.766;2023-03-20T10:23:48;98352.47;;;15.21;42.71
35226;BME280;21813;49.686;21.766;2023-03-20T10:26:23;98353.13;;;15.23;43.35
35226;BME280;21813;49.686;21.766;2023-03-20T10:29:00;98348.38;;;15.27;42.93
35226;BME280;21813;49.686;21.766;2023-03-20T10:31:46;98351.59;;;15.38;42.26
35226;BME280;21813;49.686;21.766;2023-03-20T10:34:39;98345.44;;;15.47;42.84
35226;BME280;21813;49.686;21.766;2023-03-20T10:42:31;98331.88;;;15.52;41.20
35226;BME280;21813;49.686;21.766;2023-03-20T10:47:44;98332.13;;;15.67;41.85
35226;BME280;21813;49.686;21.766;2023-03-20T10:50:28;98327.56;;;15.77;41.13
35226;BME280;21813;49.686;21.766;2023-03-20T10:52:58;98330.91;;;15.87;40.21
35226;BME280;21813;49.686;21.766;2023-03-20T10:55:27;98326.19;;;15.90;40.32
35226;BME280;21813;49.686;21.766;2023-03-20T10:58:12;98328.63;;;15.92;40.24
35226;BME280;21813;49.686;21.766;2023-03-20T11:00:39;98317.28;;;15.91;41.56
35226;BME280;21813;49.686;21.766;2023-03-20T11:03:16;98321.44;;;15.94;41.93
35226;BME280;21813;49.686;21.766;2023-03-20T11:05:45;98331.00;;;16.03;41.55
35226;BME280;21813;49.686;21.766;2023-03-20T11:08:13;98325.75;;;16.03;40.64
35226;BME280;21813;49.686;21.766;2023-03-20T11:10:41;98322.44;;;16.01;40.19
35226;BME280;21813;49.686;21.766;2023-03-20T11:13:24;98314.19;;;15.96;40.81
35226;BME280;21813;49.686;21.766;2023-03-20T11:15:51;98324.41;;;15.99;41.34
35226;BME280;21813;49.686;21.766;2023-03-20T11:18:19;98320.78;;;16.00;40.76
35226;BME280;21813;49.686;21.766;2023-03-20T11:20:51;98326.03;;;16.00;41.59
35226;BME280;21813;49.686;21.766;2023-03-20T11:23:33;98302.56;;;15.99;41.77
35226;BME280;21813;49.686;21.766;2023-03-20T11:26:03;98318.22;;;16.08;41.88
35226;BME280;21813;49.686;21.766;2023-03-20T11:28:39;98302.44;;;16.08;41.98
35226;BME280;21813;49.686;21.766;2023-03-20T11:36:39;98299.97;;;16.15;41.06
35226;BME280;21813;49.686;21.766;2023-03-20T11:41:50;98298.84;;;16.17;41.03
35226;BME280;21813;49.686;21.766;2023-03-20T11:47:03;98295.91;;;16.20;40.78
35226;BME280;21813;49.686;21.766;2023-03-20T11:49:56;98291.25;;;16.14;40.16
35226;BME280;21813;49.686;21.766;2023-03-20T11:52:34;98283.00;;;16.01;39.40
35226;BME280;21813;49.686;21.766;2023-03-20T11:55:06;98286.91;;;15.89;38.53
35226;BME280;21813;49.686;21.766;2023-03-20T11:57:39;98276.84;;;15.76;39.08
35226;BME280;21813;49.686;21.766;2023-03-20T12:02:40;98274.91;;;15.53;40.12
35226;BME280;21813;49.686;21.766;2023-03-20T12:07:55;98268.97;;;15.51;40.68
35226;BME280;21813;49.686;21.766;2023-03-20T12:10:28;98270.16;;;15.56;40.04
35226;BME280;21813;49.686;21.766;2023-03-20T12:15:39;98265.88;;;15.55;40.79
35226;BME280;21813;49.686;21.766;2023-03-20T12:18:16;98266.38;;;15.59;40.91
35226;BME280;21813;49.686;21.766;2023-03-20T12:21:03;98259.84;;;15.63;40.66
35226;BME280;21813;49.686;21.766;2023-03-20T12:23:46;98259.53;;;15.66;39.75
35226;BME280;21813;49.686;21.766;2023-03-20T12:29:19;98253.25;;;15.59;39.77
35226;BME280;21813;49.686;21.766;2023-03-20T12:32:14;98251.63;;;15.58;39.59
35226;BME280;21813;49.686;21.766;2023-03-20T12:37:39;98244.38;;;15.60;41.18
35226;BME280;21813;49.686;21.766;2023-03-20T12:40:13;98242.25;;;15.63;41.41
35226;BME280;21813;49.686;21.766;2023-03-20T12:45:28;98236.16;;;15.55;40.20
35226;BME280;21813;49.686;21.766;2023-03-20T12:48:31;98248.00;;;15.59;40.41
35226;BME280;21813;49.686;21.766;2023-03-20T12:51:05;98236.00;;;15.56;39.42
35226;BME280;21813;49.686;21.766;2023-03-20T12:59:28;98231.56;;;15.57;39.88
35226;BME280;21813;49.686;21.766;2023-03-20T13:04:57;98230.16;;;15.70;39.83
35226;BME280;21813;49.686;21.766;2023-03-20T13:10:23;98229.34;;;15.78;38.89
35226;BME280;21813;49.686;21.766;2023-03-20T13:21:06;98223.56;;;15.66;38.42
35226;BME280;21813;49.686;21.766;2023-03-20T13:29:13;98227.69;;;15.77;39.65
35226;BME280;21813;49.686;21.766;2023-03-20T13:37:34;98211.03;;;15.94;38.54
35226;BME280;21813;49.686;21.766;2023-03-20T13:40:39;98212.03;;;16.01;40.09
35226;BME280;21813;49.686;21.766;2023-03-20T13:46:06;98210.19;;;15.94;39.95
35226;BME280;21813;49.686;21.766;2023-03-20T13:48:36;98208.06;;;15.89;40.50
35226;BME280;21813;49.686;21.766;2023-03-20T13:54:14;98209.34;;;15.85;41.23
35226;BME280;21813;49.686;21.766;2023-03-20T14:05:15;98201.09;;;15.72;42.81
35226;BME280;21813;49.686;21.766;2023-03-20T14:07:46;98201.59;;;15.67;42.90
35226;BME280;21813;49.686;21.766;2023-03-20T14:12:49;98204.03;;;15.69;43.67
35226;BME280;21813;49.686;21.766;2023-03-20T14:15:18;98201.41;;;15.69;44.00
35226;BME280;21813;49.686;21.766;2023-03-20T14:17:47;98208.16;;;15.71;43.81
35226;BME280;21813;49.686;21.766;2023-03-20T14:22:52;98207.63;;;15.68;43.92
35226;BME280;21813;49.686;21.766;2023-03-20T14:25:19;98209.75;;;15.64;44.04
35226;BME280;21813;49.686;21.766;2023-03-20T14:27:59;98214.50;;;15.61;44.42
35226;BME280;21813;49.686;21.766;2023-03-20T14:35:45;98210.88;;;15.54;45.78
35226;BME280;21813;49.686;21.766;2023-03-20T14:38:20;98208.25;;;15.54;46.33
35226;BME280;21813;49.686;21.766;2023-03-20T14:41:07;98215.31;;;15.53;45.85
35226;BME280;21813;49.686;21.766;2023-03-20T14:43:51;98217.75;;;15.55;45.71
35226;BME280;21813;49.686;21.766;2023-03-20T14:46:28;98218.75;;;15.54;45.64
35226;BME280;21813;49.686;21.766;2023-03-20T14:49:03;98213.81;;;15.51;45.76
35226;BME280;21813;49.686;21.766;2023-03-20T14:51:42;98211.47;;;15.47;46.26
35226;BME280;21813;49.686;21.766;2023-03-20T14:54:28;98213.06;;;15.40;47.08
35226;BME280;21813;49.686;21.766;2023-03-20T14:56:55;98225.69;;;15.37;47.29
35226;BME280;21813;49.686;21.766;2023-03-20T14:59:32;98212.38;;;15.30;47.21
35226;BME280;21813;49.686;21.766;2023-03-20T15:01:59;98205.75;;;15.26;47.09
35226;BME280;21813;49.686;21.766;2023-03-20T15:04:40;98219.91;;;15.25;47.40
35226;BME280;21813;49.686;21.766;2023-03-20T15:07:22;98210.97;;;15.18;47.09
35226;BME280;21813;49.686;21.766;2023-03-20T15:09:54;98224.41;;;15.15;48.07
35226;BME280;21813;49.686;21.766;2023-03-20T15:12:25;98217.84;;;15.11;47.75
35226;BME280;21813;49.686;21.766;2023-03-20T15:15:04;98223.22;;;15.10;47.80
35226;BME280;21813;49.686;21.766;2023-03-20T15:17:42;98214.84;;;15.06;48.24
35226;BME280;21813;49.686;21.766;2023-03-20T15:20:22;98224.97;;;15.01;48.63
35226;BME280;21813;49.686;21.766;2023-03-20T15:22:52;98238.41;;;14.98;49.04
35226;BME280;21813;49.686;21.766;2023-03-20T15:25:21;98219.69;;;14.93;49.58
35226;BME280;21813;49.686;21.766;2023-03-20T15:27:48;98226.22;;;14.89;49.61
35226;BME280;21813;49.686;21.766;2023-03-20T15:30:18;98224.72;;;14.86;50.04
35226;BME280;21813;49.686;21.766;2023-03-20T15:32:45;98241.59;;;14.84;50.77
35226;BME280;21813;49.686;21.766;2023-03-20T15:35:21;98230.72;;;14.79;50.73